sensor_id;sensor_type;location;lat;lon;timestamp;P1;durP1;ratioP1;P2;durP2;ratioP2
9334;SDS011;4706;41.844;26.082;2022-07-25T00:02:20;16.92;;;14.45;;
9334;SDS011;4706;41.844;26.082;2022-07-25T00:04:45;17.13;;;14.77;;
9334;SDS011;4706;41.844;26.082;2022-07-25T00:07:11;15.68;;;14.10;;
9334;SDS011;4706;41.844;26.082;2022-07-25T00:09:37;14.98;;;13.63;;
9334;SDS011;4706;41.844;26.082;2022-07-25T00:12:02;14.75;;;13.52;;
9334;SDS011;4706;41.844;26.082;2022-07-25T00:14:28;14.73;;;13.45;;
9334;SDS011;4706;41.844;26.082;2022-07-25T00:16:53;14.93;;;13.40;;
9334;SDS011;4706;41.844;26.082;2022-07-25T00:19:19;14.05;;;12.60;;
9334;SDS011;4706;41.844;26.082;2022-07-25T00:21:44;15.52;;;13.95;;
9334;SDS011;4706;41.844;26.082;2022-07-25T00:24:10;14.70;;;13.25;;
9334;SDS011;4706;41.844;26.082;2022-07-25T00:26:36;15.43;;;13.90;;
9334;SDS011;4706;41.844;26.082;2022-07-25T00:29:02;16.02;;;14.50;;
9334;SDS011;4706;41.844;26.082;2022-07-25T00:31:28;14.60;;;13.20;;
9334;SDS011;4706;41.844;26.082;2022-07-25T00:33:53;14.20;;;12.82;;
9334;SDS011;4706;41.844;26.082;2022-07-25T00:36:19;16.38;;;13.10;;
9334;SDS011;4706;41.844;26.082;2022-07-25T00:38:45;13.18;;;11.88;;
9334;SDS011;4706;41.844;26.082;2022-07-25T00:41:10;13.35;;;11.95;;
9334;SDS011;4706;41.844;26.082;2022-07-25T00:43:36;14.10;;;12.73;;
9334;SDS011;4706;41.844;26.082;2022-07-25T00:46:02;15.48;;;12.63;;
9334;SDS011;4706;41.844;26.082;2022-07-25T00:48:28;13.75;;;12.45;;
9334;SDS011;4706;41.844;26.082;2022-07-25T00:50:55;14.02;;;12.55;;
9334;SDS011;4706;41.844;26.082;2022-07-25T00:53:21;13.60;;;12.38;;
9334;SDS011;4706;41.844;26.082;2022-07-25T00:55:47;13.52;;;12.05;;
9334;SDS011;4706;41.844;26.082;2022-07-25T00:58:12;13.85;;;12.45;;
9334;SDS011;4706;41.844;26.082;2022-07-25T01:00:38;13.85;;;12.55;;
9334;SDS011;4706;41.844;26.082;2022-07-25T01:03:04;14.68;;;13.23;;
9334;SDS011;4706;41.844;26.082;2022-07-25T01:05:29;14.93;;;13.27;;
9334;SDS011;4706;41.844;26.082;2022-07-25T01:07:55;14.02;;;12.65;;
9334;SDS011;4706;41.844;26.082;2022-07-25T01:10:22;13.40;;;12.07;;
9334;SDS011;4706;41.844;26.082;2022-07-25T01:12:52;13.02;;;11.82;;
9334;SDS011;4706;41.844;26.082;2022-07-25T01:15:20;14.13;;;12.52;;
9334;SDS011;4706;41.844;26.082;2022-07-25T01:17:47;14.02;;;12.73;;
9334;SDS011;4706;41.844;26.082;2022-07-25T01:20:23;13.80;;;12.43;;
9334;SDS011;4706;41.844;26.082;2022-07-25T01:22:51;14.07;;;12.75;;
9334;SDS011;4706;41.844;26.082;2022-07-25T01:25:17;14.13;;;12.93;;
9334;SDS011;4706;41.844;26.082;2022-07-25T01:27:44;14.20;;;12.48;;
9334;SDS011;4706;41.844;26.082;2022-07-25T01:30:11;14.52;;;13.13;;
9334;SDS011;4706;41.844;26.082;2022-07-25T01:32:39;14.75;;;12.82;;
9334;SDS011;4706;41.844;26.082;2022-07-25T01:35:06;14.73;;;13.13;;
9334;SDS011;4706;41.844;26.082;2022-07-25T01:37:33;14.40;;;12.90;;
9334;SDS011;4706;41.844;26.082;2022-07-25T01:39:59;15.55;;;13.15;;
9334;SDS011;4706;41.844;26.082;2022-07-25T01:42:25;13.55;;;12.35;;
9334;SDS011;4706;41.844;26.082;2022-07-25T01:44:52;14.82;;;13.32;;
9334;SDS011;4706;41.844;26.082;2022-07-25T01:47:18;14.55;;;13.15;;
9334;SDS011;4706;41.844;26.082;2022-07-25T01:49:44;15.82;;;13.30;;
9334;SDS011;4706;41.844;26.082;2022-07-25T01:52:10;14.95;;;13.63;;
9334;SDS011;4706;41.844;26.082;2022-07-25T01:54:37;14.75;;;13.25;;
9334;SDS011;4706;41.844;26.082;2022-07-25T01:57:03;15.65;;;14.30;;
9334;SDS011;4706;41.844;26.082;2022-07-25T01:59:29;16.25;;;14.68;;
9334;SDS011;4706;41.844;26.082;2022-07-25T02:01:55;17.13;;;15.63;;
9334;SDS011;4706;41.844;26.082;2022-07-25T02:04:20;18.95;;;17.08;;
9334;SDS011;4706;41.844;26.082;2022-07-25T02:06:46;19.75;;;17.85;;
9334;SDS011;4706;41.844;26.082;2022-07-25T02:09:12;21.05;;;18.95;;
9334;SDS011;4706;41.844;26.082;2022-07-25T02:11:38;21.45;;;19.65;;
9334;SDS011;4706;41.844;26.082;2022-07-25T02:14:03;22.42;;;20.60;;
9334;SDS011;4706;41.844;26.082;2022-07-25T02:16:29;24.08;;;21.65;;
9334;SDS011;4706;41.844;26.082;2022-07-25T02:18:54;22.55;;;20.45;;
9334;SDS011;4706;41.844;26.082;2022-07-25T02:21:20;21.90;;;19.98;;
9334;SDS011;4706;41.844;26.082;2022-07-25T02:23:46;21.40;;;19.50;;
9334;SDS011;4706;41.844;26.082;2022-07-25T02:26:12;21.27;;;19.30;;
9334;SDS011;4706;41.844;26.082;2022-07-25T02:28:38;20.92;;;19.00;;
9334;SDS011;4706;41.844;26.082;2022-07-25T02:31:04;19.42;;;17.67;;
9334;SDS011;4706;41.844;26.082;2022-07-25T02:33:30;18.85;;;16.90;;
9334;SDS011;4706;41.844;26.082;2022-07-25T02:35:55;19.60;;;16.67;;
9334;SDS011;4706;41.844;26.082;2022-07-25T02:38:21;16.83;;;15.32;;
9334;SDS011;4706;41.844;26.082;2022-07-25T02:40:47;16.08;;;14.45;;
9334;SDS011;4706;41.844;26.082;2022-07-25T02:43:14;16.42;;;14.35;;
9334;SDS011;4706;41.844;26.082;2022-07-25T02:45:40;16.30;;;14.80;;
9334;SDS011;4706;41.844;26.082;2022-07-25T02:48:06;15.77;;;14.07;;
9334;SDS011;4706;41.844;26.082;2022-07-25T02:50:31;14.38;;;12.48;;
9334;SDS011;4706;41.844;26.082;2022-07-25T02:52:57;14.00;;;12.40;;
9334;SDS011;4706;41.844;26.082;2022-07-25T02:55:22;14.75;;;13.25;;
9334;SDS011;4706;41.844;26.082;2022-07-25T02:57:48;14.23;;;12.75;;
9334;SDS011;4706;41.844;26.082;2022-07-25T03:00:14;14.38;;;13.00;;
9334;SDS011;4706;41.844;26.082;2022-07-25T03:02:41;18.85;;;12.85;;
9334;SDS011;4706;41.844;26.082;2022-07-25T03:05:10;19.02;;;12.82;;
9334;SDS011;4706;41.844;26.082;2022-07-25T03:07:38;18.17;;;12.57;;
9334;SDS011;4706;41.844;26.082;2022-07-25T03:10:05;13.02;;;11.75;;
9334;SDS011;4706;41.844;26.082;2022-07-25T03:12:32;14.82;;;11.23;;
9334;SDS011;4706;41.844;26.082;2022-07-25T03:14:58;13.77;;;11.00;;
9334;SDS011;4706;41.844;26.082;2022-07-25T03:17:24;12.20;;;10.98;;
9334;SDS011;4706;41.844;26.082;2022-07-25T03:19:50;12.73;;;11.40;;
9334;SDS011;4706;41.844;26.082;2022-07-25T03:22:15;12.52;;;10.32;;
9334;SDS011;4706;41.844;26.082;2022-07-25T03:24:41;14.35;;;10.77;;
9334;SDS011;4706;41.844;26.082;2022-07-25T03:27:07;13.43;;;10.50;;
9334;SDS011;4706;41.844;26.082;2022-07-25T03:29:33;13.77;;;10.52;;
9334;SDS011;4706;41.844;26.082;2022-07-25T03:31:59;16.42;;;10.25;;
9334;SDS011;4706;41.844;26.082;2022-07-25T03:34:25;13.68;;;9.77;;
9334;SDS011;4706;41.844;26.082;2022-07-25T03:36:51;10.60;;;9.50;;
9334;SDS011;4706;41.844;26.082;2022-07-25T03:39:16;14.98;;;9.60;;
9334;SDS011;4706;41.844;26.082;2022-07-25T03:41:42;13.52;;;8.80;;
9334;SDS011;4706;41.844;26.082;2022-07-25T03:44:07;15.50;;;8.75;;
9334;SDS011;4706;41.844;26.082;2022-07-25T03:46:33;17.08;;;8.63;;
9334;SDS011;4706;41.844;26.082;2022-07-25T03:48:59;11.40;;;9.00;;
9334;SDS011;4706;41.844;26.082;2022-07-25T03:51:24;12.70;;;8.50;;
9334;SDS011;4706;41.844;26.082;2022-07-25T03:53:50;13.88;;;8.25;;
9334;SDS011;4706;41.844;26.082;2022-07-25T03:56:37;11.10;;;8.63;;
9334;SDS011;4706;41.844;26.082;2022-07-25T03:59:05;12.80;;;8.93;;
9334;SDS011;4706;41.844;26.082;2022-07-25T04:01:32;12.10;;;8.80;;
9334;SDS011;4706;41.844;26.082;2022-07-25T04:03:58;9.73;;;8.77;;
9334;SDS011;4706;41.844;26.082;2022-07-25T04:06:25;10.40;;;8.68;;
9334;SDS011;4706;41.844;26.082;2022-07-25T04:08:51;13.48;;;10.18;;
9334;SDS011;4706;41.844;26.082;2022-07-25T04:11:17;11.00;;;9.63;;
9334;SDS011;4706;41.844;26.082;2022-07-25T04:13:43;14.57;;;8.90;;
9334;SDS011;4706;41.844;26.082;2022-07-25T04:16:09;11.85;;;9.35;;
9334;SDS011;4706;41.844;26.082;2022-07-25T04:18:35;13.13;;;10.18;;
9334;SDS011;4706;41.844;26.082;2022-07-25T04:21:01;15.30;;;10.00;;
9334;SDS011;4706;41.844;26.082;2022-07-25T04:23:28;16.63;;;11.18;;
9334;SDS011;4706;41.844;26.082;2022-07-25T04:25:54;19.45;;;12.00;;
9334;SDS011;4706;41.844;26.082;2022-07-25T04:28:20;15.00;;;12.52;;
9334;SDS011;4706;41.844;26.082;2022-07-25T04:30:46;18.60;;;13.80;;
9334;SDS011;4706;41.844;26.082;2022-07-25T04:33:12;19.98;;;12.88;;
9334;SDS011;4706;41.844;26.082;2022-07-25T04:35:38;21.30;;;13.15;;
9334;SDS011;4706;41.844;26.082;2022-07-25T04:38:04;19.15;;;12.00;;
9334;SDS011;4706;41.844;26.082;2022-07-25T04:40:29;16.50;;;12.18;;
9334;SDS011;4706;41.844;26.082;2022-07-25T04:42:55;13.73;;;12.25;;
9334;SDS011;4706;41.844;26.082;2022-07-25T04:45:21;13.25;;;11.98;;
9334;SDS011;4706;41.844;26.082;2022-07-25T04:47:46;15.98;;;12.07;;
9334;SDS011;4706;41.844;26.082;2022-07-25T04:50:12;16.75;;;12.23;;
9334;SDS011;4706;41.844;26.082;2022-07-25T04:52:38;16.30;;;12.90;;
9334;SDS011;4706;41.844;26.082;2022-07-25T04:55:04;14.40;;;13.02;;
9334;SDS011;4706;41.844;26.082;2022-07-25T04:57:30;16.48;;;12.52;;
9334;SDS011;4706;41.844;26.082;2022-07-25T04:59:56;18.67;;;12.50;;
9334;SDS011;4706;41.844;26.082;2022-07-25T05:02:22;21.02;;;13.02;;
9334;SDS011;4706;41.844;26.082;2022-07-25T05:04:51;17.38;;;12.50;;
9334;SDS011;4706;41.844;26.082;2022-07-25T05:07:16;14.90;;;12.35;;
9334;SDS011;4706;41.844;26.082;2022-07-25T05:09:42;17.70;;;12.82;;
9334;SDS011;4706;41.844;26.082;2022-07-25T05:12:08;14.50;;;11.85;;
9334;SDS011;4706;41.844;26.082;2022-07-25T05:14:34;14.60;;;12.40;;
9334;SDS011;4706;41.844;26.082;2022-07-25T05:17:00;16.85;;;12.02;;
9334;SDS011;4706;41.844;26.082;2022-07-25T05:19:25;13.02;;;11.65;;
9334;SDS011;4706;41.844;26.082;2022-07-25T05:21:51;16.00;;;12.05;;
9334;SDS011;4706;41.844;26.082;2022-07-25T05:24:17;15.98;;;12.10;;
9334;SDS011;4706;41.844;26.082;2022-07-25T05:26:43;16.98;;;12.75;;
9334;SDS011;4706;41.844;26.082;2022-07-25T05:29:08;18.33;;;11.90;;
9334;SDS011;4706;41.844;26.082;2022-07-25T05:31:35;13.02;;;10.82;;
9334;SDS011;4706;41.844;26.082;2022-07-25T05:34:01;14.23;;;11.38;;
9334;SDS011;4706;41.844;26.082;2022-07-25T05:36:27;16.02;;;11.70;;
9334;SDS011;4706;41.844;26.082;2022-07-25T05:38:52;13.43;;;11.35;;
9334;SDS011;4706;41.844;26.082;2022-07-25T05:41:21;12.60;;;10.98;;
9334;SDS011;4706;41.844;26.082;2022-07-25T05:43:47;13.65;;;11.27;;
9334;SDS011;4706;41.844;26.082;2022-07-25T05:46:13;29.75;;;12.48;;
9334;SDS011;4706;41.844;26.082;2022-07-25T05:48:39;16.83;;;12.30;;
9334;SDS011;4706;41.844;26.082;2022-07-25T05:51:05;13.07;;;11.48;;
9334;SDS011;4706;41.844;26.082;2022-07-25T05:53:32;15.43;;;11.45;;
9334;SDS011;4706;41.844;26.082;2022-07-25T05:55:57;13.20;;;10.18;;
9334;SDS011;4706;41.844;26.082;2022-07-25T05:58:23;17.33;;;12.57;;
9334;SDS011;4706;41.844;26.082;2022-07-25T06:00:49;18.73;;;12.25;;
9334;SDS011;4706;41.844;26.082;2022-07-25T06:03:17;14.32;;;11.70;;
9334;SDS011;4706;41.844;26.082;2022-07-25T06:05:46;17.15;;;11.90;;
9334;SDS011;4706;41.844;26.082;2022-07-25T06:08:12;21.02;;;12.27;;
9334;SDS011;4706;41.844;26.082;2022-07-25T06:10:39;13.88;;;11.75;;
9334;SDS011;4706;41.844;26.082;2022-07-25T06:13:05;71.38;;;17.05;;
9334;SDS011;4706;41.844;26.082;2022-07-25T06:15:30;18.15;;;11.98;;
9334;SDS011;4706;41.844;26.082;2022-07-25T06:17:56;14.93;;;11.43;;
9334;SDS011;4706;41.844;26.082;2022-07-25T06:20:21;17.30;;;11.63;;
9334;SDS011;4706;41.844;26.082;2022-07-25T06:22:47;17.10;;;11.05;;
9334;SDS011;4706;41.844;26.082;2022-07-25T06:25:13;16.50;;;11.07;;
9334;SDS011;4706;41.844;26.082;2022-07-25T06:27:39;25.67;;;12.93;;
9334;SDS011;4706;41.844;26.082;2022-07-25T06:30:05;15.05;;;11.68;;
9334;SDS011;4706;41.844;26.082;2022-07-25T06:32:33;12.70;;;11.52;;
9334;SDS011;4706;41.844;26.082;2022-07-25T06:34:59;13.52;;;12.07;;
9334;SDS011;4706;41.844;26.082;2022-07-25T06:37:25;19.08;;;13.15;;
9334;SDS011;4706;41.844;26.082;2022-07-25T06:39:50;13.30;;;11.35;;
9334;SDS011;4706;41.844;26.082;2022-07-25T06:42:16;20.05;;;11.85;;
9334;SDS011;4706;41.844;26.082;2022-07-25T06:44:42;12.35;;;10.98;;
9334;SDS011;4706;41.844;26.082;2022-07-25T06:47:07;14.35;;;11.55;;
9334;SDS011;4706;41.844;26.082;2022-07-25T06:49:40;16.42;;;11.90;;
9334;SDS011;4706;41.844;26.082;2022-07-25T06:52:06;15.32;;;10.55;;
9334;SDS011;4706;41.844;26.082;2022-07-25T06:54:33;12.38;;;11.05;;
9334;SDS011;4706;41.844;26.082;2022-07-25T06:56:59;18.05;;;10.38;;
9334;SDS011;4706;41.844;26.082;2022-07-25T06:59:25;10.93;;;10.02;;
9334;SDS011;4706;41.844;26.082;2022-07-25T07:01:50;10.57;;;9.68;;
9334;SDS011;4706;41.844;26.082;2022-07-25T07:04:16;11.32;;;10.43;;
9334;SDS011;4706;41.844;26.082;2022-07-25T07:06:42;28.05;;;11.40;;
9334;SDS011;4706;41.844;26.082;2022-07-25T07:09:08;12.63;;;11.55;;
9334;SDS011;4706;41.844;26.082;2022-07-25T07:11:34;14.00;;;10.07;;
9334;SDS011;4706;41.844;26.082;2022-07-25T07:14:03;14.52;;;11.55;;
9334;SDS011;4706;41.844;26.082;2022-07-25T07:16:28;12.65;;;11.40;;
9334;SDS011;4706;41.844;26.082;2022-07-25T07:18:55;85.97;;;16.50;;
9334;SDS011;4706;41.844;26.082;2022-07-25T07:21:21;24.40;;;11.52;;
9334;SDS011;4706;41.844;26.082;2022-07-25T07:23:47;13.13;;;11.68;;
9334;SDS011;4706;41.844;26.082;2022-07-25T07:26:13;40.72;;;12.40;;
9334;SDS011;4706;41.844;26.082;2022-07-25T07:28:38;11.80;;;10.32;;
9334;SDS011;4706;41.844;26.082;2022-07-25T07:31:04;15.10;;;11.38;;
9334;SDS011;4706;41.844;26.082;2022-07-25T07:33:30;12.60;;;10.45;;
9334;SDS011;4706;41.844;26.082;2022-07-25T07:35:57;12.10;;;10.90;;
9334;SDS011;4706;41.844;26.082;2022-07-25T07:38:24;12.35;;;11.10;;
9334;SDS011;4706;41.844;26.082;2022-07-25T07:40:50;11.95;;;10.88;;
9334;SDS011;4706;41.844;26.082;2022-07-25T07:43:16;11.10;;;10.27;;
9334;SDS011;4706;41.844;26.082;2022-07-25T07:45:42;11.50;;;10.48;;
9334;SDS011;4706;41.844;26.082;2022-07-25T07:48:08;11.68;;;10.48;;
9334;SDS011;4706;41.844;26.082;2022-07-25T07:50:34;11.98;;;10.25;;
9334;SDS011;4706;41.844;26.082;2022-07-25T07:53:00;12.10;;;10.80;;
9334;SDS011;4706;41.844;26.082;2022-07-25T07:55:26;12.48;;;11.45;;
9334;SDS011;4706;41.844;26.082;2022-07-25T07:58:16;11.80;;;10.73;;
9334;SDS011;4706;41.844;26.082;2022-07-25T08:00:45;12.32;;;11.48;;
9334;SDS011;4706;41.844;26.082;2022-07-25T08:03:18;12.48;;;11.15;;
9334;SDS011;4706;41.844;26.082;2022-07-25T08:05:45;11.30;;;10.30;;
9334;SDS011;4706;41.844;26.082;2022-07-25T08:08:12;12.50;;;11.07;;
9334;SDS011;4706;41.844;26.082;2022-07-25T08:10:40;12.13;;;11.02;;
9334;SDS011;4706;41.844;26.082;2022-07-25T08:13:20;11.75;;;10.82;;
9334;SDS011;4706;41.844;26.082;2022-07-25T08:15:51;12.43;;;11.52;;
9334;SDS011;4706;41.844;26.082;2022-07-25T08:18:20;11.75;;;10.75;;
9334;SDS011;4706;41.844;26.082;2022-07-25T08:20:46;12.00;;;11.00;;
9334;SDS011;4706;41.844;26.082;2022-07-25T08:23:13;12.20;;;11.15;;
9334;SDS011;4706;41.844;26.082;2022-07-25T08:25:39;12.18;;;11.10;;
9334;SDS011;4706;41.844;26.082;2022-07-25T08:28:04;12.10;;;10.57;;
9334;SDS011;4706;41.844;26.082;2022-07-25T08:30:31;12.23;;;11.02;;
9334;SDS011;4706;41.844;26.082;2022-07-25T08:32:58;11.43;;;10.50;;
9334;SDS011;4706;41.844;26.082;2022-07-25T08:35:27;13.30;;;12.05;;
9334;SDS011;4706;41.844;26.082;2022-07-25T08:37:54;12.43;;;11.25;;
9334;SDS011;4706;41.844;26.082;2022-07-25T08:40:20;12.55;;;11.35;;
9334;SDS011;4706;41.844;26.082;2022-07-25T08:42:48;12.02;;;11.05;;
9334;SDS011;4706;41.844;26.082;2022-07-25T08:45:14;12.73;;;11.73;;
9334;SDS011;4706;41.844;26.082;2022-07-25T08:47:42;12.63;;;11.63;;
9334;SDS011;4706;41.844;26.082;2022-07-25T08:50:09;13.02;;;11.95;;
9334;SDS011;4706;41.844;26.082;2022-07-25T08:52:37;12.88;;;11.85;;
9334;SDS011;4706;41.844;26.082;2022-07-25T08:55:03;12.25;;;11.05;;
9334;SDS011;4706;41.844;26.082;2022-07-25T08:57:30;12.32;;;11.15;;
9334;SDS011;4706;41.844;26.082;2022-07-25T08:59:56;12.65;;;11.57;;
9334;SDS011;4706;41.844;26.082;2022-07-25T09:02:24;13.73;;;11.20;;
9334;SDS011;4706;41.844;26.082;2022-07-25T09:04:51;11.98;;;10.88;;
9334;SDS011;4706;41.844;26.082;2022-07-25T09:07:16;11.10;;;10.25;;
9334;SDS011;4706;41.844;26.082;2022-07-25T09:09:42;11.43;;;10.32;;
9334;SDS011;4706;41.844;26.082;2022-07-25T09:12:08;11.48;;;10.57;;
9334;SDS011;4706;41.844;26.082;2022-07-25T09:14:41;10.75;;;9.88;;
9334;SDS011;4706;41.844;26.082;2022-07-25T09:17:07;10.98;;;9.85;;
9334;SDS011;4706;41.844;26.082;2022-07-25T09:19:33;12.00;;;10.95;;
9334;SDS011;4706;41.844;26.082;2022-07-25T09:22:00;12.38;;;11.35;;
9334;SDS011;4706;41.844;26.082;2022-07-25T09:24:27;11.85;;;11.05;;
9334;SDS011;4706;41.844;26.082;2022-07-25T09:26:55;12.57;;;11.23;;
9334;SDS011;4706;41.844;26.082;2022-07-25T09:29:24;11.75;;;10.82;;
9334;SDS011;4706;41.844;26.082;2022-07-25T09:31:50;14.07;;;12.88;;
9334;SDS011;4706;41.844;26.082;2022-07-25T09:34:28;11.48;;;10.60;;
9334;SDS011;4706;41.844;26.082;2022-07-25T09:37:01;11.77;;;10.63;;
9334;SDS011;4706;41.844;26.082;2022-07-25T09:39:35;13.45;;;12.32;;
9334;SDS011;4706;41.844;26.082;2022-07-25T09:42:01;12.07;;;10.85;;
9334;SDS011;4706;41.844;26.082;2022-07-25T09:44:38;16.05;;;14.23;;
9334;SDS011;4706;41.844;26.082;2022-07-25T09:47:10;12.77;;;11.40;;
9334;SDS011;4706;41.844;26.082;2022-07-25T09:49:40;12.93;;;11.85;;
9334;SDS011;4706;41.844;26.082;2022-07-25T09:52:07;11.23;;;10.23;;
9334;SDS011;4706;41.844;26.082;2022-07-25T09:54:33;10.23;;;9.35;;
9334;SDS011;4706;41.844;26.082;2022-07-25T09:56:59;11.02;;;10.02;;
9334;SDS011;4706;41.844;26.082;2022-07-25T09:59:25;11.13;;;10.18;;
9334;SDS011;4706;41.844;26.082;2022-07-25T10:02:03;12.15;;;10.93;;
9334;SDS011;4706;41.844;26.082;2022-07-25T10:04:40;10.88;;;9.88;;
9334;SDS011;4706;41.844;26.082;2022-07-25T10:07:11;9.38;;;8.77;;
9334;SDS011;4706;41.844;26.082;2022-07-25T10:09:41;8.10;;;7.47;;
9334;SDS011;4706;41.844;26.082;2022-07-25T10:12:08;9.00;;;8.32;;
9334;SDS011;4706;41.844;26.082;2022-07-25T10:14:35;7.47;;;6.90;;
9334;SDS011;4706;41.844;26.082;2022-07-25T10:17:03;9.60;;;8.70;;
9334;SDS011;4706;41.844;26.082;2022-07-25T10:22:09;13.82;;;12.45;;
9334;SDS011;4706;41.844;26.082;2022-07-25T10:24:35;18.85;;;17.25;;
9334;SDS011;4706;41.844;26.082;2022-07-25T10:27:09;7.95;;;7.40;;
9334;SDS011;4706;41.844;26.082;2022-07-25T10:29:39;8.48;;;7.75;;
9334;SDS011;4706;41.844;26.082;2022-07-25T10:32:09;9.20;;;7.75;;
9334;SDS011;4706;41.844;26.082;2022-07-25T10:34:36;11.05;;;9.85;;
9334;SDS011;4706;41.844;26.082;2022-07-25T10:37:10;6.85;;;6.20;;
9334;SDS011;4706;41.844;26.082;2022-07-25T10:39:38;6.47;;;5.47;;
9334;SDS011;4706;41.844;26.082;2022-07-25T10:42:05;5.97;;;5.57;;
9334;SDS011;4706;41.844;26.082;2022-07-25T10:44:41;6.22;;;5.80;;
9334;SDS011;4706;41.844;26.082;2022-07-25T10:47:09;6.47;;;5.93;;
9334;SDS011;4706;41.844;26.082;2022-07-25T10:49:40;6.47;;;5.78;;
9334;SDS011;4706;41.844;26.082;2022-07-25T10:52:13;5.50;;;5.20;;
9334;SDS011;4706;41.844;26.082;2022-07-25T10:54:50;5.57;;;5.22;;
9334;SDS011;4706;41.844;26.082;2022-07-25T10:57:17;8.10;;;7.50;;
9334;SDS011;4706;41.844;26.082;2022-07-25T10:59:43;6.03;;;5.53;;
9334;SDS011;4706;41.844;26.082;2022-07-25T11:02:10;7.35;;;6.75;;
9334;SDS011;4706;41.844;26.082;2022-07-25T11:04:59;5.90;;;5.40;;
9334;SDS011;4706;41.844;26.082;2022-07-25T11:07:27;6.28;;;5.68;;
9334;SDS011;4706;41.844;26.082;2022-07-25T11:09:56;7.10;;;5.85;;
9334;SDS011;4706;41.844;26.082;2022-07-25T11:12:24;6.10;;;5.60;;
9334;SDS011;4706;41.844;26.082;2022-07-25T11:14:50;5.50;;;5.00;;
9334;SDS011;4706;41.844;26.082;2022-07-25T11:17:24;6.00;;;5.40;;
9334;SDS011;4706;41.844;26.082;2022-07-25T11:22:26;5.43;;;4.93;;
9334;SDS011;4706;41.844;26.082;2022-07-25T11:24:53;5.38;;;5.00;;
9334;SDS011;4706;41.844;26.082;2022-07-25T11:27:24;6.68;;;5.50;;
9334;SDS011;4706;41.844;26.082;2022-07-25T11:30:11;5.50;;;5.10;;
9334;SDS011;4706;41.844;26.082;2022-07-25T11:32:45;5.50;;;5.03;;
9334;SDS011;4706;41.844;26.082;2022-07-25T11:35:13;5.78;;;4.82;;
9334;SDS011;4706;41.844;26.082;2022-07-25T11:37:41;5.05;;;4.55;;
9334;SDS011;4706;41.844;26.082;2022-07-25T11:40:08;6.80;;;5.55;;
9334;SDS011;4706;41.844;26.082;2022-07-25T11:42:39;5.60;;;5.20;;
9334;SDS011;4706;41.844;26.082;2022-07-25T11:45:16;6.03;;;5.63;;
9334;SDS011;4706;41.844;26.082;2022-07-25T11:47:42;6.40;;;5.80;;
9334;SDS011;4706;41.844;26.082;2022-07-25T11:50:08;4.90;;;4.60;;
9334;SDS011;4706;41.844;26.082;2022-07-25T11:52:39;5.35;;;4.95;;
9334;SDS011;4706;41.844;26.082;2022-07-25T11:55:11;5.53;;;5.13;;
9334;SDS011;4706;41.844;26.082;2022-07-25T11:57:41;5.53;;;5.20;;
9334;SDS011;4706;41.844;26.082;2022-07-25T12:00:18;6.25;;;5.65;;
9334;SDS011;4706;41.844;26.082;2022-07-25T12:02:45;5.75;;;5.20;;
9334;SDS011;4706;41.844;26.082;2022-07-25T12:05:14;5.43;;;5.07;;
9334;SDS011;4706;41.844;26.082;2022-07-25T12:07:45;6.07;;;5.60;;
9334;SDS011;4706;41.844;26.082;2022-07-25T12:10:30;5.57;;;5.07;;
9334;SDS011;4706;41.844;26.082;2022-07-25T12:12:57;4.90;;;4.60;;
9334;SDS011;4706;41.844;26.082;2022-07-25T12:15:46;4.70;;;4.30;;
9334;SDS011;4706;41.844;26.082;2022-07-25T12:18:12;5.57;;;5.28;;
9334;SDS011;4706;41.844;26.082;2022-07-25T12:20:38;6.00;;;5.22;;
9334;SDS011;4706;41.844;26.082;2022-07-25T12:23:07;6.95;;;5.57;;
9334;SDS011;4706;41.844;26.082;2022-07-25T12:25:35;5.72;;;5.32;;
9334;SDS011;4706;41.844;26.082;2022-07-25T12:28:02;5.30;;;4.90;;
9334;SDS011;4706;41.844;26.082;2022-07-25T12:30:29;5.32;;;5.03;;
9334;SDS011;4706;41.844;26.082;2022-07-25T12:32:56;5.78;;;5.38;;
9334;SDS011;4706;41.844;26.082;2022-07-25T12:35:22;6.25;;;5.20;;
9334;SDS011;4706;41.844;26.082;2022-07-25T12:37:48;5.60;;;5.10;;
9334;SDS011;4706;41.844;26.082;2022-07-25T12:40:14;5.72;;;5.32;;
9334;SDS011;4706;41.844;26.082;2022-07-25T12:42:41;5.78;;;5.38;;
9334;SDS011;4706;41.844;26.082;2022-07-25T12:45:07;5.63;;;5.22;;
9334;SDS011;4706;41.844;26.082;2022-07-25T12:47:34;5.55;;;5.15;;
9334;SDS011;4706;41.844;26.082;2022-07-25T12:50:00;5.70;;;5.28;;
9334;SDS011;4706;41.844;26.082;2022-07-25T12:52:26;5.97;;;5.47;;
9334;SDS011;4706;41.844;26.082;2022-07-25T12:54:52;5.93;;;5.53;;
9334;SDS011;4706;41.844;26.082;2022-07-25T12:57:18;6.97;;;5.68;;
9334;SDS011;4706;41.844;26.082;2022-07-25T12:59:45;5.95;;;5.55;;
9334;SDS011;4706;41.844;26.082;2022-07-25T13:02:11;6.10;;;5.70;;
9334;SDS011;4706;41.844;26.082;2022-07-25T13:04:36;7.03;;;6.18;;
9334;SDS011;4706;41.844;26.082;2022-07-25T13:07:02;7.82;;;7.05;;
9334;SDS011;4706;41.844;26.082;2022-07-25T13:09:28;6.68;;;5.90;;
9334;SDS011;4706;41.844;26.082;2022-07-25T13:11:54;6.35;;;5.50;;
9334;SDS011;4706;41.844;26.082;2022-07-25T13:14:20;6.43;;;5.90;;
9334;SDS011;4706;41.844;26.082;2022-07-25T13:16:46;6.28;;;5.88;;
9334;SDS011;4706;41.844;26.082;2022-07-25T13:19:13;6.32;;;5.72;;
9334;SDS011;4706;41.844;26.082;2022-07-25T13:21:39;6.63;;;6.10;;
9334;SDS011;4706;41.844;26.082;2022-07-25T13:24:05;6.57;;;6.10;;
9334;SDS011;4706;41.844;26.082;2022-07-25T13:26:31;7.10;;;6.43;;
9334;SDS011;4706;41.844;26.082;2022-07-25T13:28:57;6.28;;;5.88;;
9334;SDS011;4706;41.844;26.082;2022-07-25T13:31:23;6.97;;;6.32;;
9334;SDS011;4706;41.844;26.082;2022-07-25T13:33:49;13.40;;;7.03;;
9334;SDS011;4706;41.844;26.082;2022-07-25T13:36:14;7.50;;;6.80;;
9334;SDS011;4706;41.844;26.082;2022-07-25T13:38:41;8.07;;;6.55;;
9334;SDS011;4706;41.844;26.082;2022-07-25T13:41:07;7.43;;;6.82;;
9334;SDS011;4706;41.844;26.082;2022-07-25T13:43:33;7.60;;;6.93;;
9334;SDS011;4706;41.844;26.082;2022-07-25T13:45:59;8.25;;;7.47;;
9334;SDS011;4706;41.844;26.082;2022-07-25T13:48:25;7.13;;;6.57;;
9334;SDS011;4706;41.844;26.082;2022-07-25T13:50:53;8.20;;;7.60;;
9334;SDS011;4706;41.844;26.082;2022-07-25T13:53:19;8.00;;;7.43;;
9334;SDS011;4706;41.844;26.082;2022-07-25T13:55:45;8.65;;;8.02;;
9334;SDS011;4706;41.844;26.082;2022-07-25T13:58:12;9.45;;;8.55;;
9334;SDS011;4706;41.844;26.082;2022-07-25T14:00:38;8.10;;;7.50;;
9334;SDS011;4706;41.844;26.082;2022-07-25T14:03:04;9.30;;;8.40;;
9334;SDS011;4706;41.844;26.082;2022-07-25T14:05:29;9.07;;;8.38;;
9334;SDS011;4706;41.844;26.082;2022-07-25T14:07:55;8.93;;;8.05;;
9334;SDS011;4706;41.844;26.082;2022-07-25T14:10:21;8.77;;;8.05;;
9334;SDS011;4706;41.844;26.082;2022-07-25T14:12:47;8.65;;;7.95;;
9334;SDS011;4706;41.844;26.082;2022-07-25T14:15:14;10.48;;;9.57;;
9334;SDS011;4706;41.844;26.082;2022-07-25T14:17:39;12.35;;;11.48;;
9334;SDS011;4706;41.844;26.082;2022-07-25T14:20:05;9.90;;;9.05;;
9334;SDS011;4706;41.844;26.082;2022-07-25T14:22:31;9.52;;;8.73;;
9334;SDS011;4706;41.844;26.082;2022-07-25T14:24:57;9.60;;;8.68;;
9334;SDS011;4706;41.844;26.082;2022-07-25T14:27:23;8.88;;;8.07;;
9334;SDS011;4706;41.844;26.082;2022-07-25T14:29:48;8.27;;;7.68;;
9334;SDS011;4706;41.844;26.082;2022-07-25T14:32:14;8.90;;;8.00;;
9334;SDS011;4706;41.844;26.082;2022-07-25T14:34:39;8.65;;;7.85;;
9334;SDS011;4706;41.844;26.082;2022-07-25T14:37:05;8.38;;;7.78;;
9334;SDS011;4706;41.844;26.082;2022-07-25T14:39:31;8.10;;;7.50;;
9334;SDS011;4706;41.844;26.082;2022-07-25T14:41:57;8.50;;;7.90;;
9334;SDS011;4706;41.844;26.082;2022-07-25T14:44:23;9.02;;;8.32;;
9334;SDS011;4706;41.844;26.082;2022-07-25T14:46:51;8.82;;;8.10;;
9334;SDS011;4706;41.844;26.082;2022-07-25T14:49:17;11.18;;;8.48;;